sensor_id;sensor_type;location;lat;lon;timestamp;P1;durP1;ratioP1;P2;durP2;ratioP2
7989;SDS011;4040;42.848;23.034;2022-08-19T00:00:15;5.30;;;4.80;;
7989;SDS011;4040;42.848;23.034;2022-08-19T00:10:08;8.63;;;4.75;;
7989;SDS011;4040;42.848;23.034;2022-08-19T00:15:59;5.30;;;4.80;;
7989;SDS011;4040;42.848;23.034;2022-08-19T00:21:48;7.07;;;5.20;;
7989;SDS011;4040;42.848;23.034;2022-08-19T00:27:39;5.00;;;4.50;;
7989;SDS011;4040;42.848;23.034;2022-08-19T00:33:27;5.32;;;4.82;;
7989;SDS011;4040;42.848;23.034;2022-08-19T00:39:17;5.28;;;4.78;;
7989;SDS011;4040;42.848;23.034;2022-08-19T00:45:11;5.65;;;5.13;;
7989;SDS011;4040;42.848;23.034;2022-08-19T00:51:03;6.88;;;4.75;;
7989;SDS011;4040;42.848;23.034;2022-08-19T00:56:52;5.00;;;4.50;;
7989;SDS011;4040;42.848;23.034;2022-08-19T01:02:43;5.25;;;4.75;;
7989;SDS011;4040;42.848;23.034;2022-08-19T01:12:54;5.78;;;4.82;;
7989;SDS011;4040;42.848;23.034;2022-08-19T01:18:47;5.53;;;5.00;;
7989;SDS011;4040;42.848;23.034;2022-08-19T01:24:38;5.88;;;5.03;;
7989;SDS011;4040;42.848;23.034;2022-08-19T01:30:29;5.53;;;5.03;;
7989;SDS011;4040;42.848;23.034;2022-08-19T01:36:22;6.40;;;4.50;;
7989;SDS011;4040;42.848;23.034;2022-08-19T01:42:14;4.97;;;4.50;;
7989;SDS011;4040;42.848;23.034;2022-08-19T01:48:03;6.07;;;5.45;;
7989;SDS011;4040;42.848;23.034;2022-08-19T01:53:52;7.65;;;5.45;;
7989;SDS011;4040;42.848;23.034;2022-08-19T01:59:42;8.85;;;5.03;;
7989;SDS011;4040;42.848;23.034;2022-08-19T02:05:33;5.43;;;4.90;;
7989;SDS011;4040;42.848;23.034;2022-08-19T02:15:45;5.13;;;4.63;;
7989;SDS011;4040;42.848;23.034;2022-08-19T02:21:34;8.32;;;5.05;;
7989;SDS011;4040;42.848;23.034;2022-08-19T02:27:23;6.10;;;5.13;;
7989;SDS011;4040;42.848;23.034;2022-08-19T02:33:14;5.95;;;5.15;;
7989;SDS011;4040;42.848;23.034;2022-08-19T02:39:03;6.85;;;5.30;;
7989;SDS011;4040;42.848;23.034;2022-08-19T02:44:52;7.32;;;4.63;;
7989;SDS011;4040;42.848;23.034;2022-08-19T02:50:44;5.80;;;5.20;;
7989;SDS011;4040;42.848;23.034;2022-08-19T02:56:34;6.88;;;5.68;;
7989;SDS011;4040;42.848;23.034;2022-08-19T03:02:23;5.68;;;4.63;;
7989;SDS011;4040;42.848;23.034;2022-08-19T03:08:13;5.65;;;5.15;;
7989;SDS011;4040;42.848;23.034;2022-08-19T03:18:24;5.38;;;4.88;;
7989;SDS011;4040;42.848;23.034;2022-08-19T03:24:14;6.25;;;5.57;;
7989;SDS011;4040;42.848;23.034;2022-08-19T03:30:06;6.85;;;5.65;;
7989;SDS011;4040;42.848;23.034;2022-08-19T03:35:59;5.40;;;4.68;;
7989;SDS011;4040;42.848;23.034;2022-08-19T03:41:53;8.20;;;6.07;;
7989;SDS011;4040;42.848;23.034;2022-08-19T03:47:43;6.22;;;5.38;;
7989;SDS011;4040;42.848;23.034;2022-08-19T03:53:32;5.57;;;4.97;;
7989;SDS011;4040;42.848;23.034;2022-08-19T03:59:24;6.50;;;5.70;;
7989;SDS011;4040;42.848;23.034;2022-08-19T04:05:16;10.60;;;6.30;;
7989;SDS011;4040;42.848;23.034;2022-08-19T04:11:06;9.70;;;7.93;;
7989;SDS011;4040;42.848;23.034;2022-08-19T04:21:19;6.15;;;5.65;;
7989;SDS011;4040;42.848;23.034;2022-08-19T04:27:09;7.00;;;6.30;;
7989;SDS011;4040;42.848;23.034;2022-08-19T04:32:58;6.65;;;5.32;;
7989;SDS011;4040;42.848;23.034;2022-08-19T04:38:49;11.05;;;5.72;;
7989;SDS011;4040;42.848;23.034;2022-08-19T04:44:41;7.35;;;5.10;;
7989;SDS011;4040;42.848;23.034;2022-08-19T04:50:29;8.82;;;5.13;;
7989;SDS011;4040;42.848;23.034;2022-08-19T04:56:20;4.95;;;4.45;;
7989;SDS011;4040;42.848;23.034;2022-08-19T05:02:09;5.00;;;4.47;;
7989;SDS011;4040;42.848;23.034;2022-08-19T05:07:58;5.25;;;3.85;;
7989;SDS011;4040;42.848;23.034;2022-08-19T05:13:48;8.30;;;4.20;;
7989;SDS011;4040;42.848;23.034;2022-08-19T05:23:58;6.80;;;4.30;;
7989;SDS011;4040;42.848;23.034;2022-08-19T05:29:49;8.57;;;3.80;;
7989;SDS011;4040;42.848;23.034;2022-08-19T05:35:37;8.55;;;4.07;;
7989;SDS011;4040;42.848;23.034;2022-08-19T05:41:27;8.82;;;4.57;;
7989;SDS011;4040;42.848;23.034;2022-08-19T05:47:18;8.25;;;4.30;;
7989;SDS011;4040;42.848;23.034;2022-08-19T05:53:08;5.95;;;4.43;;
7989;SDS011;4040;42.848;23.034;2022-08-19T05:58:58;8.88;;;5.90;;
7989;SDS011;4040;42.848;23.034;2022-08-19T06:04:48;7.40;;;5.15;;
7989;SDS011;4040;42.848;23.034;2022-08-19T06:10:37;16.50;;;10.80;;
7989;SDS011;4040;42.848;23.034;2022-08-19T06:16:25;9.55;;;5.43;;
7989;SDS011;4040;42.848;23.034;2022-08-19T06:26:39;11.13;;;4.90;;
7989;SDS011;4040;42.848;23.034;2022-08-19T06:32:29;8.05;;;4.38;;
7989;SDS011;4040;42.848;23.034;2022-08-19T06:38:18;7.88;;;4.15;;
7989;SDS011;4040;42.848;23.034;2022-08-19T06:44:32;5.95;;;4.55;;
7989;SDS011;4040;42.848;23.034;2022-08-19T06:50:23;6.75;;;4.22;;
7989;SDS011;4040;42.848;23.034;2022-08-19T06:56:12;6.15;;;4.10;;
7989;SDS011;4040;42.848;23.034;2022-08-19T07:02:04;6.82;;;4.20;;
7989;SDS011;4040;42.848;23.034;2022-08-19T07:07:53;5.32;;;4.25;;
7989;SDS011;4040;42.848;23.034;2022-08-19T07:13:42;6.47;;;4.30;;
7989;SDS011;4040;42.848;23.034;2022-08-19T07:19:34;7.28;;;4.60;;
7989;SDS011;4040;42.848;23.034;2022-08-19T07:22:02;9.15;;;4.57;;
7989;SDS011;4040;42.848;23.034;2022-08-19T07:27:53;5.20;;;4.70;;
7989;SDS011;4040;42.848;23.034;2022-08-19T07:33:42;5.05;;;4.35;;
7989;SDS011;4040;42.848;23.034;2022-08-19T07:39:33;6.82;;;4.57;;
7989;SDS011;4040;42.848;23.034;2022-08-19T07:45:23;12.15;;;5.10;;
7989;SDS011;4040;42.848;23.034;2022-08-19T07:51:16;5.57;;;3.80;;
7989;SDS011;4040;42.848;23.034;2022-08-19T07:57:08;8.75;;;4.38;;
7989;SDS011;4040;42.848;23.034;2022-08-19T08:02:57;10.45;;;3.90;;
7989;SDS011;4040;42.848;23.034;2022-08-19T08:08:45;7.07;;;4.43;;
7989;SDS011;4040;42.848;23.034;2022-08-19T08:14:50;8.63;;;3.95;;
7989;SDS011;4040;42.848;23.034;2022-08-19T08:20:41;9.43;;;4.18;;
7989;SDS011;4040;42.848;23.034;2022-08-19T08:26:30;10.75;;;4.50;;
7989;SDS011;4040;42.848;23.034;2022-08-19T08:32:20;7.70;;;4.25;;
7989;SDS011;4040;42.848;23.034;2022-08-19T08:38:09;4.65;;;3.58;;
7989;SDS011;4040;42.848;23.034;2022-08-19T08:43:58;6.43;;;3.70;;
7989;SDS011;4040;42.848;23.034;2022-08-19T08:49:50;5.78;;;3.50;;
7989;SDS011;4040;42.848;23.034;2022-08-19T08:55:43;4.57;;;3.28;;
7989;SDS011;4040;42.848;23.034;2022-08-19T09:01:33;4.35;;;3.35;;
7989;SDS011;4040;42.848;23.034;2022-08-19T09:07:26;4.22;;;3.30;;
7989;SDS011;4040;42.848;23.034;2022-08-19T09:13:28;4.20;;;3.38;;
7989;SDS011;4040;42.848;23.034;2022-08-19T09:19:22;3.72;;;2.85;;
7989;SDS011;4040;42.848;23.034;2022-08-19T09:29:34;4.25;;;2.97;;
7989;SDS011;4040;42.848;23.034;2022-08-19T09:35:24;4.20;;;3.10;;
7989;SDS011;4040;42.848;23.034;2022-08-19T09:41:16;4.47;;;3.13;;
7989;SDS011;4040;42.848;23.034;2022-08-19T09:47:08;4.50;;;3.20;;
7989;SDS011;4040;42.848;23.034;2022-08-19T09:52:58;4.60;;;3.15;;
7989;SDS011;4040;42.848;23.034;2022-08-19T09:58:47;4.05;;;3.15;;
7989;SDS011;4040;42.848;23.034;2022-08-19T10:04:37;3.58;;;3.25;;
7989;SDS011;4040;42.848;23.034;2022-08-19T10:07:31;4.07;;;3.25;;
7989;SDS011;4040;42.848;23.034;2022-08-19T10:13:20;5.07;;;3.20;;
7989;SDS011;4040;42.848;23.034;2022-08-19T10:19:12;3.47;;;3.17;;
7989;SDS011;4040;42.848;23.034;2022-08-19T10:25:03;3.15;;;2.90;;
7989;SDS011;4040;42.848;23.034;2022-08-19T10:30:54;5.68;;;3.80;;
7989;SDS011;4040;42.848;23.034;2022-08-19T10:36:42;5.20;;;3.30;;
7989;SDS011;4040;42.848;23.034;2022-08-19T10:42:33;3.97;;;3.40;;
7989;SDS011;4040;42.848;23.034;2022-08-19T10:48:22;5.07;;;3.50;;
7989;SDS011;4040;42.848;23.034;2022-08-19T10:54:11;3.90;;;3.15;;
7989;SDS011;4040;42.848;23.034;2022-08-19T11:00:02;3.90;;;3.42;;
7989;SDS011;4040;42.848;23.034;2022-08-19T11:05:58;6.88;;;3.58;;
7989;SDS011;4040;42.848;23.034;2022-08-19T11:11:47;4.97;;;3.55;;
7989;SDS011;4040;42.848;23.034;2022-08-19T11:17:38;6.10;;;3.20;;
7989;SDS011;4040;42.848;23.034;2022-08-19T11:23:29;5.70;;;3.45;;
7989;SDS011;4040;42.848;23.034;2022-08-19T11:29:20;6.15;;;3.53;;
7989;SDS011;4040;42.848;23.034;2022-08-19T11:35:14;4.85;;;3.28;;
7989;SDS011;4040;42.848;23.034;2022-08-19T11:41:03;5.18;;;3.50;;
7989;SDS011;4040;42.848;23.034;2022-08-19T11:46:54;4.38;;;3.60;;
7989;SDS011;4040;42.848;23.034;2022-08-19T11:52:45;9.10;;;4.03;;
7989;SDS011;4040;42.848;23.034;2022-08-19T11:58:34;8.30;;;3.45;;
7989;SDS011;4040;42.848;23.034;2022-08-19T12:04:24;4.05;;;3.30;;
7989;SDS011;4040;42.848;23.034;2022-08-19T12:10:14;5.47;;;3.60;;
7989;SDS011;4040;42.848;23.034;2022-08-19T12:16:07;3.55;;;3.25;;
7989;SDS011;4040;42.848;23.034;2022-08-19T12:21:58;5.60;;;3.28;;
7989;SDS011;4040;42.848;23.034;2022-08-19T12:32:11;3.85;;;2.90;;
7989;SDS011;4040;42.848;23.034;2022-08-19T12:38:00;3.40;;;3.03;;
7989;SDS011;4040;42.848;23.034;2022-08-19T12:43:49;5.00;;;3.63;;
7989;SDS011;4040;42.848;23.034;2022-08-19T12:49:40;10.05;;;3.50;;
7989;SDS011;4040;42.848;23.034;2022-08-19T12:55:30;6.55;;;3.58;;
7989;SDS011;4040;42.848;23.034;2022-08-19T13:01:19;3.72;;;3.13;;
7989;SDS011;4040;42.848;23.034;2022-08-19T13:07:10;7.93;;;3.53;;
7989;SDS011;4040;42.848;23.034;2022-08-19T13:12:58;6.05;;;3.63;;
7989;SDS011;4040;42.848;23.034;2022-08-19T13:18:48;5.18;;;3.45;;
7989;SDS011;4040;42.848;23.034;2022-08-19T13:24:40;6.95;;;3.50;;
7989;SDS011;4040;42.848;23.034;2022-08-19T13:34:51;6.63;;;3.47;;
7989;SDS011;4040;42.848;23.034;2022-08-19T13:40:41;5.35;;;3.80;;
7989;SDS011;4040;42.848;23.034;2022-08-19T13:46:30;5.53;;;3.45;;
7989;SDS011;4040;42.848;23.034;2022-08-19T13:52:19;6.15;;;4.00;;
7989;SDS011;4040;42.848;23.034;2022-08-19T13:58:09;8.48;;;4.07;;
7989;SDS011;4040;42.848;23.034;2022-08-19T14:03:59;7.03;;;3.53;;
7989;SDS011;4040;42.848;23.034;2022-08-19T14:09:48;8.13;;;4.10;;
7989;SDS011;4040;42.848;23.034;2022-08-19T14:15:38;6.30;;;3.80;;
7989;SDS011;4040;42.848;23.034;2022-08-19T14:21:27;7.13;;;3.75;;
7989;SDS011;4040;42.848;23.034;2022-08-19T14:27:16;6.95;;;3.55;;
7989;SDS011;4040;42.848;23.034;2022-08-19T14:37:28;4.97;;;3.60;;
7989;SDS011;4040;42.848;23.034;2022-08-19T14:43:17;10.23;;;4.20;;
7989;SDS011;4040;42.848;23.034;2022-08-19T14:49:06;6.68;;;4.15;;
7989;SDS011;4040;42.848;23.034;2022-08-19T14:54:57;9.38;;;4.00;;
7989;SDS011;4040;42.848;23.034;2022-08-19T15:00:45;5.15;;;3.88;;
7989;SDS011;4040;42.848;23.034;2022-08-19T15:06:34;7.55;;;3.83;;
7989;SDS011;4040;42.848;23.034;2022-08-19T15:12:25;12.45;;;3.92;;
7989;SDS011;4040;42.848;23.034;2022-08-19T15:18:13;9.98;;;4.35;;
7989;SDS011;4040;42.848;23.034;2022-08-19T15:24:03;7.72;;;4.38;;
7989;SDS011;4040;42.848;23.034;2022-08-19T15:29:54;13.35;;;5.85;;
7989;SDS011;4040;42.848;23.034;2022-08-19T15:40:06;6.55;;;4.10;;
7989;SDS011;4040;42.848;23.034;2022-08-19T15:45:57;6.22;;;4.32;;
7989;SDS011;4040;42.848;23.034;2022-08-19T15:51:46;6.43;;;4.22;;
7989;SDS011;4040;42.848;23.034;2022-08-19T15:57:37;6.47;;;4.85;;
7989;SDS011;4040;42.848;23.034;2022-08-19T16:03:44;4.63;;;4.18;;
7989;SDS011;4040;42.848;23.034;2022-08-19T16:09:50;7.28;;;4.00;;
7989;SDS011;4040;42.848;23.034;2022-08-19T16:15:39;7.25;;;4.70;;
7989;SDS011;4040;42.848;23.034;2022-08-19T16:21:32;5.57;;;4.03;;
7989;SDS011;4040;42.848;23.034;2022-08-19T16:27:22;6.53;;;4.32;;
7989;SDS011;4040;42.848;23.034;2022-08-19T16:33:11;6.85;;;4.25;;
7989;SDS011;4040;42.848;23.034;2022-08-19T16:35:38;10.20;;;3.72;;
7989;SDS011;4040;42.848;23.034;2022-08-19T16:41:29;9.32;;;3.97;;
7989;SDS011;4040;42.848;23.034;2022-08-19T16:47:17;7.40;;;4.07;;
7989;SDS011;4040;42.848;23.034;2022-08-19T16:53:06;6.05;;;3.97;;
7989;SDS011;4040;42.848;23.034;2022-08-19T16:58:57;6.60;;;4.28;;
7989;SDS011;4040;42.848;23.034;2022-08-19T17:04:46;6.38;;;3.50;;
7989;SDS011;4040;42.848;23.034;2022-08-19T17:10:35;9.45;;;4.30;;
7989;SDS011;4040;42.848;23.034;2022-08-19T17:16:26;7.07;;;4.20;;
7989;SDS011;4040;42.848;23.034;2022-08-19T17:22:17;5.05;;;3.85;;
7989;SDS011;4040;42.848;23.034;2022-08-19T17:28:18;8.45;;;3.90;;
7989;SDS011;4040;42.848;23.034;2022-08-19T17:34:09;7.80;;;4.60;;
7989;SDS011;4040;42.848;23.034;2022-08-19T17:39:58;8.07;;;4.28;;
7989;SDS011;4040;42.848;23.034;2022-08-19T17:45:48;9.55;;;4.25;;
7989;SDS011;4040;42.848;23.034;2022-08-19T17:51:39;7.18;;;4.05;;
7989;SDS011;4040;42.848;23.034;2022-08-19T17:57:30;6.13;;;3.75;;
7989;SDS011;4040;42.848;23.034;2022-08-19T18:03:19;4.72;;;3.83;;
7989;SDS011;4040;42.848;23.034;2022-08-19T18:09:09;8.30;;;4.85;;
7989;SDS011;4040;42.848;23.034;2022-08-19T18:14:58;6.40;;;4.10;;
7989;SDS011;4040;42.848;23.034;2022-08-19T18:20:47;10.60;;;4.70;;
7989;SDS011;4040;42.848;23.034;2022-08-19T18:26:37;7.18;;;4.10;;
7989;SDS011;4040;42.848;23.034;2022-08-19T18:32:26;9.15;;;4.57;;
7989;SDS011;4040;42.848;23.034;2022-08-19T18:42:42;9.55;;;5.25;;
7989;SDS011;4040;42.848;23.034;2022-08-19T18:48:49;11.07;;;6.25;;
7989;SDS011;4040;42.848;23.034;2022-08-19T18:54:54;21.23;;;12.00;;
7989;SDS011;4040;42.848;23.034;2022-08-19T19:00:46;9.93;;;6.28;;
7989;SDS011;4040;42.848;23.034;2022-08-19T19:06:35;10.02;;;5.90;;
7989;SDS011;4040;42.848;23.034;2022-08-19T19:12:27;8.63;;;5.05;;
7989;SDS011;4040;42.848;23.034;2022-08-19T19:18:17;6.35;;;5.05;;
7989;SDS011;4040;42.848;23.034;2022-08-19T19:24:06;11.32;;;5.85;;
7989;SDS011;4040;42.848;23.034;2022-08-19T19:29:55;5.95;;;5.13;;
7989;SDS011;4040;42.848;23.034;2022-08-19T19:35:45;8.10;;;5.28;;
7989;SDS011;4040;42.848;23.034;2022-08-19T19:45:55;13.88;;;8.27;;
7989;SDS011;4040;42.848;23.034;2022-08-19T19:51:46;16.02;;;8.20;;
7989;SDS011;4040;42.848;23.034;2022-08-19T19:57:35;8.02;;;5.50;;
7989;SDS011;4040;42.848;23.034;2022-08-19T20:03:26;11.30;;;5.40;;
7989;SDS011;4040;42.848;23.034;2022-08-19T20:09:16;7.20;;;5.10;;
7989;SDS011;4040;42.848;23.034;2022-08-19T20:15:05;8.52;;;5.68;;
7989;SDS011;4040;42.848;23.034;2022-08-19T20:20:55;9.57;;;5.53;;
7989;SDS011;4040;42.848;23.034;2022-08-19T20:26:45;8.85;;;6.05;;
7989;SDS011;4040;42.848;23.034;2022-08-19T20:32:34;7.72;;;5.80;;
7989;SDS011;4040;42.848;23.034;2022-08-19T20:38:23;10.32;;;5.93;;
7989;SDS011;4040;42.848;23.034;2022-08-19T20:48:35;10.63;;;5.90;;
7989;SDS011;4040;42.848;23.034;2022-08-19T20:54:25;5.68;;;5.07;;
7989;SDS011;4040;42.848;23.034;2022-08-19T21:00:14;8.98;;;5.75;;
7989;SDS011;4040;42.848;23.034;2022-08-19T21:06:04;8.23;;;4.90;;
7989;SDS011;4040;42.848;23.034;2022-08-19T21:11:53;7.55;;;5.75;;
7989;SDS011;4040;42.848;23.034;2022-08-19T21:17:42;8.00;;;5.40;;
7989;SDS011;4040;42.848;23.034;2022-08-19T21:23:33;7.00;;;5.65;;
7989;SDS011;4040;42.848;23.034;2022-08-19T21:29:22;11.85;;;6.00;;
7989;SDS011;4040;42.848;23.034;2022-08-19T21:35:11;7.05;;;6.05;;
7989;SDS011;4040;42.848;23.034;2022-08-19T21:41:02;6.13;;;5.53;;
7989;SDS011;4040;42.848;23.034;2022-08-19T21:51:14;6.28;;;5.68;;
7989;SDS011;4040;42.848;23.034;2022-08-19T21:57:04;7.38;;;5.57;;
7989;SDS011;4040;42.848;23.034;2022-08-19T22:08:37;6.47;;;5.70;;
7989;SDS011;4040;42.848;23.034;2022-08-19T22:14:27;8.65;;;5.78;;
7989;SDS011;4040;42.848;23.034;2022-08-19T22:20:17;8.07;;;5.50;;
7989;SDS011;4040;42.848;23.034;2022-08-19T22:26:09;6.95;;;5.65;;
7989;SDS011;4040;42.848;23.034;2022-08-19T22:31:59;7.85;;;6.15;;
7989;SDS011;4040;42.848;23.034;2022-08-19T22:37:48;7.43;;;6.57;;
7989;SDS011;4040;42.848;23.034;2022-08-19T22:43:38;9.40;;;7.10;;
7989;SDS011;4040;42.848;23.034;2022-08-19T22:49:27;7.70;;;6.53;;
7989;SDS011;4040;42.848;23.034;2022-08-19T22:55:16;8.88;;;7.25;;
7989;SDS011;4040;42.848;23.034;2022-08-19T23:01:06;7.60;;;6.78;;
7989;SDS011;4040;42.848;23.034;2022-08-19T23:11:17;9.82;;;7.30;;
7989;SDS011;4040;42.848;23.034;2022-08-19T23:17:07;11.48;;;7.07;;
7989;SDS011;4040;42.848;23.034;2022-08-19T23:22:56;7.70;;;6.65;;
7989;SDS011;4040;42.848;23.034;2022-08-19T23:28:45;7.63;;;6.78;;
7989;SDS011;4040;42.848;23.034;2022-08-19T23:34:55;8.07;;;6.65;;
7989;SDS011;4040;42.848;23.034;2022-08-19T23:40:44;11.25;;;7.20;;
7989;SDS011;4040;42.848;23.034;2022-08-19T23:46:33;10.52;;;6.70;;
7989;SDS011;4040;42.848;23.034;2022-08-19T23:52:23;9.32;;;6.95;;
7989;SDS011;4040;42.848;23.034;2022-08-19T23:58:14;9.60;;;6.70;;
